Portada
METAR-TAF:

METAR-TAF

Aeroports :

Lahr, Alemanya

latitud: 48-22-09N, longitud: 007-49-40E, altitud: 156 m

Observació

L'informe es va fer fa 36 minuts, a les 03:50 UTC
Vent 1 kt amb direcció variable
Temperatura 17°C
Humitat 94%
Pressió 1016 hPa
Visibilitat 10 km o més
sense núvols per sota de 1500 mi sense presència de cumulonimbus.

METAR: EDTL 240350Z VRB01KT CAVOK 17/16 Q1016

Hora: 06:26 (04:26 UTC)

Pronòstic

L'informe es va fer fa 11 hores i 26 minuts, a les 17:00 UTC
Pronòstic vàlid del 23 a les 18 UTC al 23 a les 24 UTC
Vent 6 kt del Nord
Visibilitat 10 km o més
sense núvols per sota de 1500 mi sense presència de cumulonimbus.
Evolucionant progressivament
l' 23 a les 18 UTC al 23 a les 21 UTC
Vent 3 kt amb direcció variable

TAF: EDTL 231700Z 2318/2324 01006KT CAVOK BECMG 2318/2321 VRB03KT

Observacions i pronòstics meteorològics de més de 4000 aeroports (METAR i TAF).

Les estacions disponibles són els punts grocs i vermells al mapa.

Posi el ratolí al punt desitjat per veure el nom de l'estació.

Feu clic per veure les observacions i els pronòstics meteorològics.

Per canviar el mapa: feu clic els botons verds amb una creu de color negre per apropar; al botó verd amb un guió per allunyar la imatge; o en les fletxes verdes per a mapes adjacents.


METAR-TAF: